Terminal Aerodrome Forecast
Issued by NWS Nashville, TN

Home | Current Version | Previous Version | Text Only | Print | Product List | Glossary On
Versions: 1 2 3 4 5 6 7 8 9 10 11 12 13 14 15 16 17 18
936
FTUS44 KOHX 230607 AAB
TAFBNA
TAF AMD
KBNA 230607Z 2306/2406 10015G25KT P6SM -SHRA SCT015 BKN040
      TEMPO 2306/2308 4SM BR BKN015
     FM230800 10015G23KT 6SM -SHRA SCT007 OVC020
     FM231200 13011G18KT P6SM VCSH OVC015
     FM231800 16008KT P6SM VCSH BKN040
     FM240400 VRB03KT P6SM OVC025=

USA.gov is the U.S. government's official web portal to all federal, state and local government web resources and services.